Time;durP1;ratioP1;P1;durP2;ratioP2;P2;SDS_P1;SDS_P2;PMS_P1;PMS_P2;Temp;Humidity;BMP_temperature;BMP_pressure;BME280_temperature;BME280_humidity;BME280_pressure;Samples;Min_cycle;Max_cycle;Signal;HPM_P1;HPM_P2
2022/11/25 00:00:24;;;;;;;1.17;0.25;;;;;;;2.33;100.00;99697.44;5023504;28;20072;-62
2022/11/25 00:02:49;;;;;;;2.63;0.28;;;;;;;2.31;100.00;99696.75;5026550;28;20091;-62
2022/11/25 00:05:15;;;;;;;1.98;0.68;;;;;;;2.31;100.00;99703.78;5028996;28;20025;-61
2022/11/25 00:07:40;;;;;;;6.13;0.90;;;;;;;2.29;100.00;99706.56;5030498;28;20021;-61
2022/11/25 00:10:06;;;;;;;1.35;0.85;;;;;;;2.33;100.00;99705.28;5027205;28;20445;-61
2022/11/25 00:12:31;;;;;;;9.70;2.17;;;;;;;2.36;100.00;99704.97;5026251;28;20064;-62
2022/11/25 00:14:57;;;;;;;3.40;0.82;;;;;;;2.38;100.00;99705.63;5013370;28;20017;-62
2022/11/25 00:17:22;;;;;;;2.42;0.70;;;;;;;2.35;100.00;99710.34;5030692;28;20056;-62
2022/11/25 00:19:47;;;;;;;2.55;0.90;;;;;;;2.50;100.00;99707.94;5008315;28;20033;-62
2022/11/25 00:22:14;;;;;;;4.53;0.63;;;;;;;2.45;100.00;99715.47;5017946;28;20029;-62
2022/11/25 00:24:40;;;;;;;4.95;1.63;;;;;;;2.44;100.00;99721.69;5022639;28;20037;-62
2022/11/25 00:27:05;;;;;;;6.45;0.57;;;;;;;2.48;100.00;99715.13;5020472;28;20580;-62
2022/11/25 00:29:31;;;;;;;3.28;0.95;;;;;;;2.51;100.00;99723.50;5023102;28;20078;-61
2022/11/25 00:31:56;;;;;;;3.38;1.35;;;;;;;2.44;100.00;99725.09;5019763;28;20028;-62
2022/11/25 00:34:22;;;;;;;1.15;0.20;;;;;;;2.45;100.00;99729.34;5022876;28;20060;-62
2022/11/25 00:36:47;;;;;;;8.43;1.25;;;;;;;2.33;100.00;99728.00;5023391;28;20040;-62
2022/11/25 00:39:15;;;;;;;2.58;0.80;;;;;;;2.26;100.00;99733.03;5023982;28;20032;-61
2022/11/25 00:44:40;;;;;;;4.88;0.63;;;;;;;2.20;100.00;99738.91;5024824;28;20040;-61
2022/11/25 00:47:21;;;;;;;5.88;1.10;;;;;;;2.30;100.00;99755.31;5020785;28;20044;-62
2022/11/25 00:49:50;;;;;;;2.45;0.45;;;;;;;2.29;100.00;99756.25;5021599;28;20082;-62
2022/11/25 00:52:21;;;;;;;11.82;2.45;;;;;;;2.23;100.00;99758.69;5020635;28;20057;-62
2022/11/25 00:54:48;;;;;;;11.60;2.90;;;;;;;2.29;100.00;99763.28;5021811;28;20156;-61
2022/11/25 00:57:15;;;;;;;8.00;0.80;;;;;;;2.28;100.00;99762.47;5022612;28;20041;-60
2022/11/25 00:59:40;;;;;;;3.40;0.68;;;;;;;2.39;100.00;99764.00;5022496;28;20057;-61
2022/11/25 01:02:06;;;;;;;6.60;0.73;;;;;;;2.40;100.00;99760.41;5022786;28;20125;-62
2022/11/25 01:04:32;;;;;;;3.75;0.38;;;;;;;2.47;100.00;99763.22;5019567;28;20056;-61
2022/11/25 01:06:58;;;;;;;6.03;1.13;;;;;;;2.70;100.00;99777.41;5021585;28;20029;-62
2022/11/25 01:09:25;;;;;;;4.60;0.88;;;;;;;3.04;100.00;99779.16;5008166;28;20057;-61
2022/11/25 01:11:51;;;;;;;6.45;2.53;;;;;;;3.16;100.00;99788.38;5020510;28;20034;-61
2022/11/25 01:14:17;;;;;;;4.05;0.20;;;;;;;3.12;100.00;99786.22;5024035;28;20030;-61
2022/11/25 01:16:42;;;;;;;2.33;0.60;;;;;;;3.02;100.00;99787.19;5019105;28;20032;-62
2022/11/25 01:19:09;;;;;;;4.60;0.88;;;;;;;2.98;100.00;99796.31;5022483;28;20518;-62
2022/11/25 01:21:34;;;;;;;7.38;0.98;;;;;;;2.87;100.00;99799.25;5020212;28;20033;-62
2022/11/25 01:24:01;;;;;;;9.63;1.95;;;;;;;2.75;100.00;99806.53;5024379;28;20524;-62
2022/11/25 01:26:28;;;;;;;5.93;1.20;;;;;;;2.80;100.00;99801.66;5023883;28;20176;-62
2022/11/25 01:28:59;;;;;;;4.07;0.20;;;;;;;2.73;100.00;99800.63;5003548;28;20022;-62
2022/11/25 01:31:28;;;;;;;6.03;0.57;;;;;;;2.73;100.00;99816.34;5016247;28;20479;-59
2022/11/25 01:33:56;;;;;;;2.75;1.10;;;;;;;2.89;100.00;99822.63;5024064;28;20041;-61
2022/11/25 01:36:22;;;;;;;9.45;1.85;;;;;;;3.24;100.00;99827.69;5023188;28;20029;-60
2022/11/25 01:38:53;;;;;;;6.80;1.50;;;;;;;3.44;100.00;99832.66;5023972;28;20022;-60
2022/11/25 01:41:20;;;;;;;11.20;0.68;;;;;;;3.58;100.00;99834.63;5021341;28;20116;-61
2022/11/25 01:44:13;;;;;;;8.93;1.90;;;;;;;3.76;100.00;99847.59;5019727;28;20394;-59
2022/11/25 01:47:19;;;;;;;5.70;1.67;;;;;;;3.82;100.00;99839.09;5002680;28;20087;-61
2022/11/25 01:49:55;;;;;;;11.75;2.42;;;;;;;3.83;100.00;99842.53;5024613;28;20197;-61
2022/11/25 01:52:27;;;;;;;13.02;1.48;;;;;;;3.91;100.00;99850.41;5024116;28;20550;-60
2022/11/25 01:54:54;;;;;;;8.65;1.77;;;;;;;3.92;100.00;99852.88;5023580;28;20029;-61
2022/11/25 01:57:33;;;;;;;11.77;3.20;;;;;;;4.08;100.00;99861.72;5027251;28;20382;-58
2022/11/25 02:00:02;;;;;;;16.00;1.45;;;;;;;4.14;100.00;99866.31;5026463;28;20025;-61
2022/11/25 02:02:28;;;;;;;9.20;0.98;;;;;;;4.11;100.00;99871.91;5006168;28;20030;-61
2022/11/25 02:04:55;;;;;;;5.50;1.45;;;;;;;4.18;100.00;99874.69;5025235;28;20025;-60
2022/11/25 02:07:32;;;;;;;7.55;2.85;;;;;;;4.34;100.00;99878.13;5027344;28;20075;-61
2022/11/25 02:10:00;;;;;;;9.43;0.73;;;;;;;4.31;100.00;99890.75;5026176;28;20042;-61
2022/11/25 02:12:27;;;;;;;6.72;1.00;;;;;;;4.23;100.00;99888.13;5025433;28;20227;-61
2022/11/25 02:14:55;;;;;;;7.32;0.90;;;;;;;4.22;100.00;99889.94;5029482;28;20017;-61
2022/11/25 02:17:21;;;;;;;6.20;1.15;;;;;;;4.12;100.00;99889.28;5028679;28;20029;-62
2022/11/25 02:20:05;;;;;;;11.82;2.05;;;;;;;4.11;100.00;99906.84;5028441;28;20075;-60
2022/11/25 02:22:59;;;;;;;6.60;0.77;;;;;;;4.30;100.00;99907.50;5026905;28;20038;-60
2022/11/25 02:25:28;;;;;;;4.00;1.00;;;;;;;4.38;100.00;99912.72;5016464;28;20745;-60
2022/11/25 02:27:59;;;;;;;10.00;2.15;;;;;;;4.38;100.00;99915.34;5023201;28;20032;-61
2022/11/25 02:30:25;;;;;;;2.15;1.17;;;;;;;4.37;100.00;99918.97;5026016;28;20052;-61
2022/11/25 02:32:50;;;;;;;7.78;2.50;;;;;;;4.42;100.00;99921.94;5025675;28;20542;-61
2022/11/25 02:35:27;;;;;;;14.25;2.47;;;;;;;4.50;100.00;99931.59;5028407;28;20034;-59
2022/11/25 02:37:55;;;;;;;8.95;1.73;;;;;;;4.62;100.00;99935.53;5027373;28;20029;-62
2022/11/25 02:40:22;;;;;;;14.50;1.48;;;;;;;4.62;100.00;99942.56;5027309;28;20410;-61
2022/11/25 02:42:49;;;;;;;7.03;0.85;;;;;;;4.57;100.00;99933.41;5027024;28;20026;-60
2022/11/25 02:45:20;;;;;;;16.33;2.22;;;;;;;4.65;100.00;99940.47;5025272;28;20064;-61
2022/11/25 02:47:45;;;;;;;6.32;2.03;;;;;;;4.63;100.00;99944.25;5029587;28;20111;-60
2022/11/25 02:50:12;;;;;;;14.63;1.08;;;;;;;4.66;100.00;99943.91;5027154;28;20033;-61
2022/11/25 02:52:38;;;;;;;8.05;1.88;;;;;;;4.64;100.00;99951.94;5028642;28;20025;-59
2022/11/25 02:55:04;;;;;;;8.18;1.20;;;;;;;4.75;100.00;99948.13;5025001;28;20072;-60
2022/11/25 02:57:29;;;;;;;12.75;2.55;;;;;;;4.74;100.00;99957.84;5025000;28;20079;-60
2022/11/25 02:59:54;;;;;;;9.88;1.23;;;;;;;4.74;100.00;99960.47;5031124;28;20075;-60
2022/11/25 03:02:20;;;;;;;18.95;3.22;;;;;;;4.70;100.00;99963.56;5025494;28;20099;-61
2022/11/25 03:04:45;;;;;;;13.73;0.93;;;;;;;4.71;100.00;99976.56;5026089;28;20044;-60
2022/11/25 03:07:10;;;;;;;17.83;2.22;;;;;;;4.75;100.00;99984.91;5030518;28;20052;-59
2022/11/25 03:09:36;;;;;;;7.25;1.15;;;;;;;4.74;100.00;99983.28;5028858;28;20096;-60
2022/11/25 03:12:19;;;;;;;7.97;2.40;;;;;;;4.71;100.00;99979.19;5034245;28;20041;-60
2022/11/25 03:14:44;;;;;;;8.45;0.82;;;;;;;4.77;100.00;99977.69;5018875;28;20079;-60
2022/11/25 03:17:10;;;;;;;13.80;2.10;;;;;;;4.80;100.00;99977.34;5022806;28;20029;-60
2022/11/25 03:19:35;;;;;;;10.48;1.55;;;;;;;4.79;100.00;99979.16;5024508;28;20037;-61
2022/11/25 03:22:01;;;;;;;15.50;1.08;;;;;;;4.84;100.00;99978.69;5028369;28;20068;-61
2022/11/25 03:24:27;;;;;;;11.73;3.47;;;;;;;4.90;100.00;99978.00;5026463;28;20061;-60
2022/11/25 03:26:52;;;;;;;5.60;2.47;;;;;;;4.87;100.00;99973.09;5024610;28;20091;-59
2022/11/25 03:29:17;;;;;;;7.28;1.17;;;;;;;4.91;100.00;99979.66;5024890;28;20029;-61
2022/11/25 03:31:43;;;;;;;21.33;1.98;;;;;;;4.97;100.00;99986.88;5025777;28;20082;-61
2022/11/25 03:34:08;;;;;;;13.68;1.60;;;;;;;5.00;100.00;99999.66;5027923;28;20486;-61
2022/11/25 03:36:34;;;;;;;19.02;3.03;;;;;;;5.03;100.00;100007.25;5022115;28;20057;-61
2022/11/25 03:38:59;;;;;;;7.70;1.02;;;;;;;5.23;100.00;100009.50;5016912;28;20022;-61
2022/11/25 03:41:24;;;;;;;12.10;2.30;;;;;;;5.21;100.00;100014.09;5023234;28;20029;-61
2022/11/25 03:43:50;;;;;;;5.70;2.10;;;;;;;5.23;100.00;100020.81;5026448;28;20406;-60
2022/11/25 03:46:15;;;;;;;8.60;2.33;;;;;;;5.26;100.00;100035.44;5027737;28;20026;-59
2022/11/25 03:48:40;;;;;;;7.07;1.50;;;;;;;5.36;100.00;100024.75;5024530;28;20033;-61
2022/11/25 03:51:06;;;;;;;11.57;1.58;;;;;;;5.70;100.00;100027.09;5020908;28;20053;-59
2022/11/25 03:53:31;;;;;;;5.70;1.45;;;;;;;5.67;100.00;100028.25;5028217;28;20418;-57
2022/11/25 03:55:56;;;;;;;6.90;0.63;;;;;;;5.59;100.00;100030.91;5026734;28;20076;-61
2022/11/25 03:58:22;;;;;;;8.13;0.60;;;;;;;5.46;100.00;100034.06;5027668;28;20022;-60
2022/11/25 04:00:47;;;;;;;16.60;1.27;;;;;;;5.36;100.00;100043.16;5024849;28;20029;-59
2022/11/25 04:03:12;;;;;;;2.58;0.45;;;;;;;5.34;100.00;100038.03;5026757;28;20025;-60
2022/11/25 04:05:38;;;;;;;8.23;2.75;;;;;;;5.24;100.00;100048.75;5023973;28;20406;-61
2022/11/25 04:08:04;;;;;;;5.53;1.38;;;;;;;4.99;100.00;100050.59;5034026;28;20022;-61
2022/11/25 04:10:29;;;;;;;1.92;0.52;;;;;;;4.90;100.00;100045.50;5024396;28;20387;-59
2022/11/25 04:12:54;;;;;;;4.50;1.02;;;;;;;4.67;100.00;100045.31;5027621;28;20422;-61
2022/11/25 04:15:20;;;;;;;1.83;0.47;;;;;;;4.57;100.00;100048.13;5025616;28;20428;-61
2022/11/25 04:17:46;;;;;;;12.93;0.68;;;;;;;4.46;100.00;100049.25;5026876;28;20123;-60
2022/11/25 04:20:12;;;;;;;16.85;1.40;;;;;;;4.51;100.00;100052.19;5027440;28;20026;-60
2022/11/25 04:22:38;;;;;;;6.55;2.15;;;;;;;4.47;100.00;100055.34;5023204;28;20308;-60
2022/11/25 04:25:04;;;;;;;7.88;1.60;;;;;;;4.47;100.00;100063.22;5030761;28;20025;-60
2022/11/25 04:27:29;;;;;;;13.40;1.65;;;;;;;4.45;100.00;100068.59;5034791;28;20470;-59
2022/11/25 04:29:54;;;;;;;11.05;1.98;;;;;;;4.62;100.00;100073.88;5027852;28;20387;-61
2022/11/25 04:32:20;;;;;;;4.57;1.48;;;;;;;4.64;100.00;100082.41;5032664;28;20034;-60
2022/11/25 04:34:45;;;;;;;9.20;1.17;;;;;;;4.62;100.00;100079.97;5024170;28;20056;-60
2022/11/25 04:37:11;;;;;;;9.35;2.25;;;;;;;4.70;100.00;100092.25;5029717;28;20109;-61
2022/11/25 04:39:36;;;;;;;6.35;1.20;;;;;;;4.71;100.00;100101.81;5009176;28;20116;-60
2022/11/25 04:45:11;;;;;;;14.25;2.80;;;;;;;4.75;100.00;100113.63;4977543;28;20179;-58
2022/11/25 04:47:37;;;;;;;;;;;;;;;4.87;100.00;100122.81;4979668;28;20113;-62
2022/11/25 04:50:08;;;;;;;4.50;1.08;;;;;;;4.88;100.00;100129.75;5000934;28;20020;-61
2022/11/25 04:52:34;;;;;;;16.17;1.95;;;;;;;4.91;100.00;100137.28;5035157;28;20041;-61
2022/11/25 04:55:00;;;;;;;11.85;1.38;;;;;;;4.93;100.00;100130.06;5028281;28;20060;-61
2022/11/25 04:57:25;;;;;;;6.22;0.93;;;;;;;4.89;100.00;100143.69;5020940;28;20033;-60
2022/11/25 04:59:51;;;;;;;6.88;1.25;;;;;;;4.83;100.00;100147.78;5036938;28;20032;-61
2022/11/25 05:02:22;;;;;;;4.18;0.43;;;;;;;4.86;100.00;100152.72;5032633;28;20425;-61
2022/11/25 05:04:50;;;;;;;5.38;0.40;;;;;;;4.83;100.00;100160.94;5027923;28;20577;-61
2022/11/25 05:07:18;;;;;;;8.25;1.65;;;;;;;4.79;100.00;100168.28;5023344;28;20607;-60
2022/11/25 05:09:43;;;;;;;4.00;0.88;;;;;;;4.79;100.00;100167.47;5028750;28;20450;-60
2022/11/25 05:12:12;;;;;;;8.70;1.25;;;;;;;4.87;100.00;100175.38;5026620;28;20040;-61
2022/11/25 05:14:37;;;;;;;10.52;2.08;;;;;;;4.80;100.00;100182.25;5027453;28;20068;-60
2022/11/25 05:17:04;;;;;;;4.18;1.02;;;;;;;4.69;100.00;100179.94;5025026;28;20053;-60
2022/11/25 05:19:29;;;;;;;6.82;0.82;;;;;;;4.58;100.00;100183.69;5019644;28;20034;-61
2022/11/25 05:21:55;;;;;;;9.75;2.58;;;;;;;4.48;100.00;100178.53;5026065;28;20035;-60
2022/11/25 05:24:20;;;;;;;3.00;1.45;;;;;;;4.40;100.00;100191.66;5028682;28;20040;-61
2022/11/25 05:26:45;;;;;;;9.02;1.05;;;;;;;4.28;100.00;100187.66;5026994;28;20061;-61
2022/11/25 05:29:11;;;;;;;2.78;0.47;;;;;;;4.10;100.00;100191.16;5031518;28;20037;-61
2022/11/25 05:31:36;;;;;;;4.00;1.08;;;;;;;3.99;100.00;100195.88;5032971;28;20041;-60
2022/11/25 05:34:02;;;;;;;3.60;1.02;;;;;;;3.97;100.00;100201.25;5029383;28;20022;-61
2022/11/25 05:36:28;;;;;;;10.05;1.08;;;;;;;3.91;100.00;100205.34;5029516;28;20041;-61
2022/11/25 05:38:56;;;;;;;8.40;2.05;;;;;;;3.92;100.00;100214.88;5031560;28;20035;-61
2022/11/25 05:41:21;;;;;;;2.65;0.63;;;;;;;3.79;100.00;100214.44;5031246;28;20041;-61
2022/11/25 05:43:47;;;;;;;9.80;0.82;;;;;;;3.85;100.00;100226.13;5029264;28;20045;-61
2022/11/25 05:46:12;;;;;;;11.13;1.02;;;;;;;3.97;100.00;100238.00;5011607;28;20064;-61
2022/11/25 05:48:37;;;;;;;5.70;1.58;;;;;;;3.93;100.00;100232.25;5029706;28;20034;-61
2022/11/25 05:51:03;;;;;;;11.70;1.45;;;;;;;4.34;100.00;100244.78;5031250;28;20084;-61
2022/11/25 05:53:30;;;;;;;9.35;3.33;;;;;;;4.56;100.00;100256.53;5030527;28;20108;-60
2022/11/25 05:56:01;;;;;;;9.38;0.90;;;;;;;4.41;100.00;100250.22;5028528;28;20025;-60
2022/11/25 05:58:28;;;;;;;3.72;0.90;;;;;;;4.32;100.00;100262.50;5029669;28;20036;-62
2022/11/25 06:00:54;;;;;;;9.93;2.60;;;;;;;4.46;100.00;100264.50;5024925;28;20038;-62
2022/11/25 06:03:26;;;;;;;12.60;1.55;;;;;;;4.47;100.00;100275.88;5028084;28;20120;-61
2022/11/25 06:05:52;;;;;;;11.15;1.30;;;;;;;4.59;100.00;100285.94;5011031;28;20105;-57
2022/11/25 06:08:17;;;;;;;12.68;1.73;;;;;;;4.47;100.00;100287.19;5023920;28;20032;-61
2022/11/25 06:10:42;;;;;;;10.30;1.83;;;;;;;4.56;100.00;100291.47;5028735;28;20494;-61
2022/11/25 06:13:08;;;;;;;20.77;1.63;;;;;;;4.64;100.00;100293.31;5029021;28;20029;-61
2022/11/25 06:15:38;;;;;;;5.82;1.17;;;;;;;4.67;100.00;100294.81;5023114;28;20055;-62
2022/11/25 06:18:04;;;;;;;11.13;1.85;;;;;;;4.52;100.00;100308.53;5024339;28;20439;-60
2022/11/25 06:20:29;;;;;;;4.80;0.88;;;;;;;4.52;100.00;100308.53;5026646;28;20120;-61
2022/11/25 06:22:57;;;;;;;5.90;3.00;;;;;;;4.65;100.00;100321.25;5010228;28;20056;-60
2022/11/25 06:25:22;;;;;;;5.45;1.45;;;;;;;4.86;100.00;100328.75;5024509;28;20132;-61
2022/11/25 06:27:48;;;;;;;11.55;1.83;;;;;;;4.88;100.00;100345.19;5026922;28;20526;-61
2022/11/25 06:30:14;;;;;;;9.55;0.75;;;;;;;4.72;100.00;100360.84;5029086;28;20053;-61
2022/11/25 06:32:39;;;;;;;2.13;0.20;;;;;;;4.48;100.00;100362.34;5022536;28;20040;-60
2022/11/25 06:35:05;;;;;;;7.10;0.77;;;;;;;4.61;100.00;100372.44;5027683;28;20033;-61
2022/11/25 06:37:31;;;;;;;3.03;0.70;;;;;;;4.61;100.00;100377.69;5024678;28;20029;-61
2022/11/25 06:39:57;;;;;;;2.25;1.08;;;;;;;4.50;100.00;100384.00;5030288;28;20479;-59
2022/11/25 06:42:22;;;;;;;5.65;1.15;;;;;;;4.36;100.00;100390.66;5024637;28;20044;-60
2022/11/25 06:44:48;;;;;;;8.50;0.88;;;;;;;4.26;100.00;100386.44;5028276;28;20040;-60
2022/11/25 06:47:13;;;;;;;6.38;2.15;;;;;;;4.11;100.00;100386.19;5027552;28;20053;-60
2022/11/25 06:49:38;;;;;;;3.90;1.00;;;;;;;4.13;100.00;100400.81;5036440;28;20044;-61
2022/11/25 06:52:04;;;;;;;7.53;0.70;;;;;;;4.54;100.00;100406.38;5030445;28;20116;-60
2022/11/25 06:54:29;;;;;;;8.55;0.95;;;;;;;4.60;100.00;100407.56;5030051;28;20029;-61
2022/11/25 06:56:55;;;;;;;19.70;2.75;;;;;;;4.42;100.00;100414.66;5032695;28;20025;-61
2022/11/25 06:59:20;;;;;;;4.65;0.35;;;;;;;4.26;100.00;100425.81;5012794;28;20033;-61
2022/11/25 07:01:46;;;;;;;4.63;0.52;;;;;;;4.18;100.00;100431.81;5022309;28;20107;-60
2022/11/25 07:04:11;;;;;;;8.38;0.30;;;;;;;4.04;100.00;100433.19;5021916;28;20025;-61
2022/11/25 07:06:37;;;;;;;3.13;0.40;;;;;;;4.27;100.00;100438.00;5033009;28;20112;-60
2022/11/25 07:09:03;;;;;;;5.13;1.20;;;;;;;4.32;100.00;100448.84;5021536;28;20042;-61
2022/11/25 07:11:32;;;;;;;1.23;0.30;;;;;;;4.18;100.00;100460.69;5018429;28;20068;-60
2022/11/25 07:14:01;;;;;;;7.80;0.65;;;;;;;4.14;100.00;100465.44;5032485;28;20029;-60
2022/11/25 07:16:27;;;;;;;9.18;0.65;;;;;;;4.23;100.00;100462.88;5026944;28;20021;-61
2022/11/25 07:18:53;;;;;;;8.63;0.50;;;;;;;4.08;100.00;100478.31;5029403;28;20320;-59
2022/11/25 07:21:21;;;;;;;7.88;2.20;;;;;;;3.77;100.00;100483.91;5024010;28;20084;-61
2022/11/25 07:23:47;;;;;;;1.85;1.38;;;;;;;3.56;100.00;100471.00;5015382;28;20075;-61
2022/11/25 07:26:22;;;;;;;1.60;0.60;;;;;;;3.44;100.00;100486.13;5024029;28;20013;-60
2022/11/25 07:28:49;;;;;;;2.72;0.65;;;;;;;3.21;100.00;100488.28;5022439;28;20037;-61
2022/11/25 07:31:16;;;;;;;1.52;0.28;;;;;;;3.15;100.00;100486.25;5016653;28;20524;-61
2022/11/25 07:33:42;;;;;;;2.92;0.57;;;;;;;3.10;100.00;100495.47;5027704;28;20373;-61
2022/11/25 07:36:10;;;;;;;8.80;0.60;;;;;;;3.04;100.00;100508.16;4987603;28;20034;-61
2022/11/25 07:38:36;;;;;;;2.85;0.65;;;;;;;3.00;100.00;100517.28;5026325;28;20025;-61
2022/11/25 07:41:11;;;;;;;10.15;1.48;;;;;;;3.05;100.00;100516.88;5022572;28;20025;-62
2022/11/25 07:43:37;;;;;;;6.15;1.10;;;;;;;3.02;100.00;100525.84;5019011;28;20056;-59
2022/11/25 07:46:14;;;;;;;2.45;0.85;;;;;;;2.94;100.00;100538.78;5023457;28;20022;-61
2022/11/25 07:48:40;;;;;;;1.58;0.85;;;;;;;2.79;100.00;100551.50;5014447;28;20090;-63
2022/11/25 07:51:23;;;;;;;7.28;2.20;;;;;;;2.83;100.00;100565.16;5016448;28;20018;-60
2022/11/25 07:53:49;;;;;;;4.50;0.68;;;;;;;2.94;100.00;100579.88;5002531;28;20268;-59
2022/11/25 07:56:16;;;;;;;3.25;0.52;;;;;;;2.90;100.00;100587.19;5022146;28;20113;-61
2022/11/25 07:58:42;;;;;;;5.30;1.10;;;;;;;2.81;100.00;100581.00;5023519;28;20032;-61
2022/11/25 08:01:10;;;;;;;5.00;0.65;;;;;;;2.82;100.00;100592.31;5025128;28;20051;-61
2022/11/25 08:03:37;;;;;;;1.75;0.20;;;;;;;2.72;100.00;100596.72;5024724;28;20037;-61
2022/11/25 08:06:07;;;;;;;3.20;0.30;;;;;;;2.62;100.00;100610.63;5028922;28;20021;-61
2022/11/25 08:08:33;;;;;;;0.85;0.52;;;;;;;2.47;100.00;100611.16;5025750;28;20051;-61
2022/11/25 08:10:59;;;;;;;7.50;1.25;;;;;;;2.40;100.00;100618.69;5020292;28;20056;-61
2022/11/25 08:13:25;;;;;;;5.82;1.42;;;;;;;2.39;100.00;100632.75;5015904;28;20128;-59
2022/11/25 08:15:50;;;;;;;4.53;1.70;;;;;;;2.48;100.00;100633.72;5010943;28;20548;-61
2022/11/25 08:18:16;;;;;;;4.80;1.52;;;;;;;2.46;100.00;100638.28;5028044;28;20033;-60
2022/11/25 08:20:42;;;;;;;4.35;1.83;;;;;;;2.40;100.00;100637.88;5018312;28;20037;-61
2022/11/25 08:23:07;;;;;;;10.45;2.05;;;;;;;2.50;100.00;100652.75;5023387;28;20479;-61
2022/11/25 08:25:38;;;;;;;7.07;2.63;;;;;;;2.65;100.00;100663.66;5011795;28;20033;-61
2022/11/25 08:28:04;;;;;;;8.10;1.70;;;;;;;2.57;100.00;100666.97;5016346;28;20044;-61
2022/11/25 08:30:29;;;;;;;5.32;2.10;;;;;;;2.52;100.00;100674.38;5020373;28;20080;-60
2022/11/25 08:32:56;;;;;;;10.10;2.10;;;;;;;2.56;100.00;100678.41;5023550;28;20073;-61
2022/11/25 08:35:22;;;;;;;3.78;1.08;;;;;;;2.56;100.00;100678.41;5017933;28;20328;-61
2022/11/25 08:37:47;;;;;;;3.00;1.15;;;;;;;2.57;100.00;100682.66;5027352;28;20036;-60
2022/11/25 08:40:13;;;;;;;4.40;1.17;;;;;;;2.58;100.00;100690.41;5023896;28;20036;-61
2022/11/25 08:42:38;;;;;;;4.07;1.33;;;;;;;2.64;100.00;100703.91;5027258;28;20025;-60
2022/11/25 08:45:05;;;;;;;2.85;0.20;;;;;;;2.56;100.00;100717.69;5023662;28;20591;-59
2022/11/25 08:47:30;;;;;;;0.50;0.32;;;;;;;2.47;100.00;100718.47;5025454;28;20474;-61
2022/11/25 08:49:56;;;;;;;3.33;0.60;;;;;;;2.42;100.00;100731.13;5027455;28;20029;-60
2022/11/25 08:52:21;;;;;;;4.38;1.05;;;;;;;2.42;100.00;100733.72;5025739;28;20022;-61
2022/11/25 08:54:47;;;;;;;3.60;0.40;;;;;;;2.49;100.00;100742.72;5013105;28;20470;-61
2022/11/25 08:57:13;;;;;;;0.98;0.30;;;;;;;2.58;100.00;100748.00;5025220;28;20471;-60
2022/11/25 08:59:39;;;;;;;2.65;0.68;;;;;;;2.58;100.00;100750.63;5025642;28;20037;-62
2022/11/25 09:02:05;;;;;;;4.95;0.60;;;;;;;2.57;100.00;100754.16;5027850;28;20116;-60
2022/11/25 09:04:31;;;;;;;0.63;0.40;;;;;;;2.71;100.00;100754.75;5019795;28;20140;-61
2022/11/25 09:06:56;;;;;;;2.53;0.90;;;;;;;2.93;100.00;100764.22;5031060;28;20105;-61
2022/11/25 09:09:21;;;;;;;5.53;0.80;;;;;;;3.12;100.00;100766.03;5022255;28;20045;-60
2022/11/25 09:11:47;;;;;;;3.50;1.08;;;;;;;3.27;100.00;100783.00;5026351;28;20032;-60
2022/11/25 09:14:12;;;;;;;4.63;1.17;;;;;;;3.47;100.00;100789.13;5025054;28;20060;-61
2022/11/25 09:16:38;;;;;;;6.93;1.50;;;;;;;3.52;100.00;100794.78;5026177;28;20041;-61
2022/11/25 09:19:03;;;;;;;8.27;2.15;;;;;;;3.64;100.00;100804.16;5028599;28;20021;-60
2022/11/25 09:21:29;;;;;;;11.88;4.00;;;;;;;3.79;100.00;100803.72;5029394;28;20029;-61
2022/11/25 09:23:54;;;;;;;3.60;1.60;;;;;;;3.92;100.00;100807.75;5028285;28;20029;-60
2022/11/25 09:26:23;;;;;;;9.27;2.10;;;;;;;4.10;100.00;100820.13;5012295;28;20033;-60
2022/11/25 09:28:48;;;;;;;4.85;1.63;;;;;;;4.22;100.00;100820.81;5030293;28;20104;-60
2022/11/25 09:31:14;;;;;;;5.75;1.52;;;;;;;4.37;100.00;100822.84;5022751;28;20128;-60
2022/11/25 09:33:39;;;;;;;15.60;2.38;;;;;;;4.44;100.00;100832.75;5022912;28;20116;-61
2022/11/25 09:36:05;;;;;;;4.65;1.83;;;;;;;4.69;100.00;100842.66;5031429;28;20056;-60
2022/11/25 09:38:31;;;;;;;5.50;2.03;;;;;;;4.90;100.00;100845.03;5030282;28;20022;-61
2022/11/25 09:41:02;;;;;;;8.82;1.60;;;;;;;5.06;100.00;100851.47;5022198;28;20444;-61
2022/11/25 09:46:44;;;;;;;5.85;0.85;;;;;;;5.28;100.00;100851.09;5028486;28;20064;-60
2022/11/25 09:49:37;;;;;;;10.93;1.60;;;;;;;5.45;100.00;100860.81;5028360;28;20486;-60
2022/11/25 09:52:18;;;;;;;9.43;0.85;;;;;;;5.59;100.00;100862.09;5029643;28;20470;-61
2022/11/25 09:54:58;;;;;;;2.35;0.63;;;;;;;5.72;100.00;100874.88;5031531;28;20091;-60
2022/11/25 09:57:46;;;;;;;7.15;1.95;;;;;;;5.85;100.00;100895.56;5031986;28;20132;-61
2022/11/25 10:00:15;;;;;;;10.07;0.85;;;;;;;5.99;100.00;100899.50;5020902;28;20030;-59
2022/11/25 10:02:44;;;;;;;6.90;0.55;;;;;;;6.02;100.00;100900.03;5029222;28;20025;-59
2022/11/25 10:05:36;;;;;;;6.20;0.63;;;;;;;6.23;100.00;100906.81;5031243;28;20037;-60
2022/11/25 10:08:12;;;;;;;5.15;1.42;;;;;;;6.26;100.00;100909.94;5024967;28;20623;-60
2022/11/25 10:10:47;;;;;;;7.93;2.00;;;;;;;6.41;100.00;100920.78;5032749;28;20085;-60
2022/11/25 10:13:51;;;;;;;10.60;0.98;;;;;;;6.52;100.00;100912.59;5028514;28;20021;-61
2022/11/25 10:16:36;;;;;;;6.90;0.70;;;;;;;6.63;100.00;100903.63;4998346;28;20103;-60
2022/11/25 10:19:14;;;;;;;7.75;1.83;;;;;;;6.74;100.00;100913.94;5016445;28;20517;-61
2022/11/25 10:21:39;;;;;;;4.65;0.55;;;;;;;6.81;100.00;100903.56;5030984;28;20512;-61
2022/11/25 10:24:11;;;;;;;10.23;2.08;;;;;;;6.94;100.00;100897.88;5010707;28;20037;-60
2022/11/25 10:26:42;;;;;;;10.27;1.75;;;;;;;7.03;100.00;100894.31;5029425;28;20029;-61
2022/11/25 10:29:13;;;;;;;10.18;0.90;;;;;;;7.17;100.00;100887.59;5028021;28;20442;-60
2022/11/25 10:31:41;;;;;;;5.55;1.67;;;;;;;7.22;100.00;100888.78;5032877;28;20061;-60
2022/11/25 10:34:32;;;;;;;5.13;0.60;;;;;;;7.36;100.00;100886.53;5026896;28;20565;-61
2022/11/25 10:36:59;;;;;;;2.80;0.93;;;;;;;7.46;100.00;100884.59;5021737;28;20960;-60
2022/11/25 10:39:28;;;;;;;10.50;2.17;;;;;;;7.55;100.00;100882.78;5031300;28;20052;-61
2022/11/25 10:42:03;;;;;;;4.57;1.25;;;;;;;7.69;100.00;100894.50;5032096;28;20474;-61
2022/11/25 10:44:38;;;;;;;2.83;0.70;;;;;;;7.76;100.00;100898.16;5031348;28;20259;-62
2022/11/25 10:47:29;;;;;;;5.25;0.75;;;;;;;7.93;100.00;100896.38;5031181;28;20041;-59
2022/11/25 10:50:19;;;;;;;5.45;0.88;;;;;;;8.01;100.00;100893.75;5026865;28;20041;-60
2022/11/25 10:52:57;;;;;;;5.63;1.15;;;;;;;8.11;100.00;100899.69;5029439;28;20017;-61
2022/11/25 10:55:25;;;;;;;11.43;2.20;;;;;;;8.19;100.00;100896.25;5037378;28;20030;-60
2022/11/25 10:57:54;;;;;;;6.55;0.85;;;;;;;8.28;100.00;100901.34;5030732;28;20041;-61
2022/11/25 11:00:30;;;;;;;6.65;1.35;;;;;;;8.34;100.00;100894.59;5019163;28;20034;-61
2022/11/25 11:02:57;;;;;;;11.15;2.03;;;;;;;8.47;100.00;100905.50;5025234;28;20033;-62
2022/11/25 11:05:24;;;;;;;8.55;2.60;;;;;;;8.58;100.00;100898.22;5021852;28;20063;-62
2022/11/25 11:08:27;;;;;;;13.02;0.70;;;;;;;8.67;100.00;100894.56;5019584;28;20025;-61
2022/11/25 11:11:07;;;;;;;10.23;0.90;;;;;;;8.73;100.00;100894.72;5025354;28;20045;-63
2022/11/25 11:13:33;;;;;;;4.10;2.25;;;;;;;8.77;100.00;100891.72;5025165;28;20049;-62
2022/11/25 11:15:59;;;;;;;6.53;1.90;;;;;;;8.84;100.00;100885.59;5023919;28;20437;-61
2022/11/25 11:18:27;;;;;;;4.55;0.70;;;;;;;8.85;100.00;100879.31;5030618;28;20041;-61
2022/11/25 11:20:55;;;;;;;5.07;0.85;;;;;;;8.97;100.00;100877.13;5030067;28;20035;-60
2022/11/25 11:23:21;;;;;;;6.07;0.43;;;;;;;8.99;100.00;100867.22;5023973;28;20037;-60
2022/11/25 11:26:00;;;;;;;8.38;0.70;;;;;;;9.20;100.00;100861.31;5030339;28;20489;-61
2022/11/25 11:28:29;;;;;;;7.13;1.65;;;;;;;9.10;100.00;100853.59;5028303;28;20049;-60
2022/11/25 11:30:59;;;;;;;5.28;0.60;;;;;;;9.24;100.00;100844.13;5035975;28;20381;-60
2022/11/25 11:33:29;;;;;;;3.20;1.02;;;;;;;9.33;100.00;100843.06;5027011;28;20036;-62
2022/11/25 11:36:09;;;;;;;2.35;0.60;;;;;;;9.33;100.00;100837.78;5030621;28;20033;-60
2022/11/25 11:38:42;;;;;;;4.72;0.20;;;;;;;9.39;100.00;100834.41;5030739;28;20036;-61
2022/11/25 11:41:39;;;;;;;1.95;0.32;;;;;;;9.38;100.00;100826.69;5017149;28;20030;-59